Time,TemperatureF,DewpointF,PressureIn,WindDirection,WindDirectionDegrees,WindSpeedMPH,WindSpeedGustMPH,Humidity,HourlyPrecipIn,Conditions,Clouds,dailyrainin,SolarRadiationWatts/m^2,SoftwareType,DateUTC
2013-07-07 00:00:00,70.0,69.0,30.32,ESE,122,0.0,-999.0,97,-99.99,,,-99.99,0.660000,,2013-07-07 04:00:00,
2013-07-07 04:00:00,69.0,69.0,30.28,South,184,0.0,-999.0,98,-99.99,,,-99.99,0.670000,,2013-07-07 08:00:00,
2013-07-07 04:53:00,69.0,69.0,30.28,South,184,0.0,-999.0,98,-99.99,,,-99.99,0.670000,,2013-07-07 08:53:00,
2013-07-07 05:00:00,70.0,69.0,30.27,SSW,212,0.0,-999.0,98,-99.99,,,-99.99,1.480000,,2013-07-07 09:00:00,
2013-07-07 06:00:00,70.0,70.0,30.29,SW,217,2.0,-999.0,98,-99.99,,,-99.99,1.230000,,2013-07-07 10:00:00,
2013-07-07 06:52:00,70.0,70.0,30.29,SW,217,2.0,-999.0,98,-99.99,,,-99.99,1.230000,,2013-07-07 10:52:00,
2013-07-07 07:00:00,71.0,70.0,30.28,SW,229,2.0,-999.0,97,-99.99,,,-99.99,31.510000,,2013-07-07 11:00:00,
2013-07-07 08:00:00,72.0,70.0,30.29,SW,230,3.0,-999.0,95,-99.99,,,-99.99,94.900002,,2013-07-07 12:00:00,
2013-07-07 09:00:00,73.0,71.0,30.30,SW,224,3.0,-999.0,93,-99.99,,,-99.99,155.699997,,2013-07-07 13:00:00,
2013-07-07 10:00:00,75.0,71.0,30.30,SW,234,3.0,-999.0,88,-99.99,,,-99.99,216.899994,,2013-07-07 14:00:00,
2013-07-07 10:53:00,75.0,71.0,30.30,SW,234,3.0,-999.0,88,-99.99,,,-99.99,216.899994,,2013-07-07 14:53:00,
2013-07-07 11:00:00,77.0,71.0,30.30,SSW,213,4.0,-999.0,82,-99.99,,,-99.99,382.200012,,2013-07-07 15:00:00,
2013-07-07 11:52:00,77.0,71.0,30.30,SSW,213,4.0,-999.0,82,-99.99,,,-99.99,382.200012,,2013-07-07 15:52:00,
2013-07-07 12:00:00,78.0,71.0,30.30,SW,221,4.0,-999.0,78,-99.99,,,-99.99,501.299988,,2013-07-07 16:00:00,
2013-07-07 13:00:00,80.0,70.0,30.28,SSW,211,5.0,-999.0,71,-99.99,,,-99.99,753.000000,,2013-07-07 17:00:00,
2013-07-07 14:00:00,77.0,72.0,30.27,SSW,209,4.0,-999.0,85,-99.99,,,-99.99,383.299988,,2013-07-07 18:00:00,
2013-07-07 14:53:00,77.0,72.0,30.27,SSW,209,4.0,-999.0,85,-99.99,,,-99.99,383.299988,,2013-07-07 18:53:00,
2013-07-07 15:00:00,74.0,72.0,30.26,SW,231,2.0,-999.0,94,-99.99,,,-99.99,180.300003,,2013-07-07 19:00:00,
2013-07-07 16:00:00,77.0,74.0,30.26,SW,223,2.0,-999.0,90,-99.99,,,-99.99,322.899994,,2013-07-07 20:00:00,
2013-07-07 16:53:00,77.0,74.0,30.26,SW,223,2.0,-999.0,90,-99.99,,,-99.99,322.899994,,2013-07-07 20:53:00,
2013-07-07 17:00:00,77.0,75.0,30.23,West,281,1.0,-999.0,92,-99.99,,,-99.99,272.600006,,2013-07-07 21:00:00,
2013-07-07 17:53:00,77.0,75.0,30.23,West,281,1.0,-999.0,92,-99.99,,,-99.99,272.600006,,2013-07-07 21:53:00,
2013-07-07 18:00:00,75.0,72.0,30.22,NNW,334,0.0,-999.0,88,-99.99,,,-99.99,153.500000,,2013-07-07 22:00:00,
2013-07-07 18:54:00,75.0,72.0,30.22,NNW,334,0.0,-999.0,88,-99.99,,,-99.99,153.500000,,2013-07-07 22:54:00,
2013-07-07 19:00:00,69.0,67.0,30.22,West,260,2.0,-999.0,91,-99.99,,,-99.99,45.490002,,2013-07-07 23:00:00,
2013-07-07 20:00:00,68.0,67.0,30.23,WSW,243,2.0,-999.0,95,-99.99,,,-99.99,13.510000,,2013-07-08 00:00:00,
2013-07-07 20:53:00,68.0,67.0,30.23,WSW,243,2.0,-999.0,95,-99.99,,,-99.99,13.510000,,2013-07-08 00:53:00,
2013-07-07 21:00:00,68.0,67.0,30.24,SW,225,2.0,-999.0,96,-99.99,,,-99.99,3.070000,,2013-07-08 01:00:00,
2013-07-07 22:00:00,68.0,67.0,30.27,SW,222,1.0,-999.0,96,-99.99,,,-99.99,0.640000,,2013-07-08 02:00:00,
2013-07-07 23:00:00,68.0,67.0,30.28,SSW,205,0.0,-999.0,97,-99.99,,,-99.99,0.630000,,2013-07-08 03:00:00,
2013-07-07 23:52:00,68.0,67.0,30.28,SSW,205,0.0,-999.0,97,-99.99,,,-99.99,0.630000,,2013-07-08 03:52:00,